sensor_id;sensor_type;location;lat;lon;timestamp;P1;durP1;ratioP1;P2;durP2;ratioP2
5521;SDS011;2783;48.730;8.006;2022-08-19T00:00:25;21.33;;;13.95;;
5521;SDS011;2783;48.730;8.006;2022-08-19T00:02:51;19.80;;;13.32;;
5521;SDS011;2783;48.730;8.006;2022-08-19T00:05:17;21.13;;;13.93;;
5521;SDS011;2783;48.730;8.006;2022-08-19T00:07:44;22.40;;;14.45;;
5521;SDS011;2783;48.730;8.006;2022-08-19T00:10:10;19.98;;;13.35;;
5521;SDS011;2783;48.730;8.006;2022-08-19T00:12:39;20.92;;;13.27;;
5521;SDS011;2783;48.730;8.006;2022-08-19T00:15:06;21.27;;;13.98;;
5521;SDS011;2783;48.730;8.006;2022-08-19T00:17:42;20.50;;;13.10;;
5521;SDS011;2783;48.730;8.006;2022-08-19T00:20:16;19.45;;;12.80;;
5521;SDS011;2783;48.730;8.006;2022-08-19T00:22:44;19.90;;;12.52;;
5521;SDS011;2783;48.730;8.006;2022-08-19T00:25:10;17.83;;;12.18;;
5521;SDS011;2783;48.730;8.006;2022-08-19T00:27:36;20.48;;;13.38;;
5521;SDS011;2783;48.730;8.006;2022-08-19T00:30:03;18.60;;;13.82;;
5521;SDS011;2783;48.730;8.006;2022-08-19T00:32:30;20.58;;;12.68;;
5521;SDS011;2783;48.730;8.006;2022-08-19T00:34:56;20.75;;;13.30;;
5521;SDS011;2783;48.730;8.006;2022-08-19T00:37:22;18.73;;;13.07;;
5521;SDS011;2783;48.730;8.006;2022-08-19T00:39:51;21.60;;;13.10;;
5521;SDS011;2783;48.730;8.006;2022-08-19T00:42:16;20.02;;;12.80;;
5521;SDS011;2783;48.730;8.006;2022-08-19T00:44:43;21.50;;;12.68;;
5521;SDS011;2783;48.730;8.006;2022-08-19T00:47:09;20.50;;;12.70;;
5521;SDS011;2783;48.730;8.006;2022-08-19T00:49:37;21.05;;;13.30;;
5521;SDS011;2783;48.730;8.006;2022-08-19T00:52:09;18.95;;;12.02;;
5521;SDS011;2783;48.730;8.006;2022-08-19T00:54:39;21.20;;;13.65;;
5521;SDS011;2783;48.730;8.006;2022-08-19T00:57:06;19.77;;;12.80;;
5521;SDS011;2783;48.730;8.006;2022-08-19T00:59:34;23.45;;;12.82;;
5521;SDS011;2783;48.730;8.006;2022-08-19T01:02:03;19.73;;;12.35;;
5521;SDS011;2783;48.730;8.006;2022-08-19T01:04:29;21.05;;;13.00;;
5521;SDS011;2783;48.730;8.006;2022-08-19T01:06:55;19.65;;;12.40;;
5521;SDS011;2783;48.730;8.006;2022-08-19T01:09:21;21.13;;;13.48;;
5521;SDS011;2783;48.730;8.006;2022-08-19T01:11:46;21.50;;;13.23;;
5521;SDS011;2783;48.730;8.006;2022-08-19T01:14:12;21.10;;;13.43;;
5521;SDS011;2783;48.730;8.006;2022-08-19T01:16:39;21.90;;;13.43;;
5521;SDS011;2783;48.730;8.006;2022-08-19T01:19:17;24.13;;;14.43;;
5521;SDS011;2783;48.730;8.006;2022-08-19T01:21:52;22.27;;;13.23;;
5521;SDS011;2783;48.730;8.006;2022-08-19T01:24:26;20.52;;;13.20;;
5521;SDS011;2783;48.730;8.006;2022-08-19T01:26:51;20.60;;;13.38;;
5521;SDS011;2783;48.730;8.006;2022-08-19T01:29:17;23.60;;;13.50;;
5521;SDS011;2783;48.730;8.006;2022-08-19T01:31:42;23.13;;;13.90;;
5521;SDS011;2783;48.730;8.006;2022-08-19T01:34:08;22.00;;;14.20;;
5521;SDS011;2783;48.730;8.006;2022-08-19T01:36:37;20.75;;;13.20;;
5521;SDS011;2783;48.730;8.006;2022-08-19T01:39:08;22.02;;;13.32;;
5521;SDS011;2783;48.730;8.006;2022-08-19T01:41:35;25.20;;;13.35;;
5521;SDS011;2783;48.730;8.006;2022-08-19T01:44:01;20.80;;;12.90;;
5521;SDS011;2783;48.730;8.006;2022-08-19T01:46:29;22.92;;;14.10;;
5521;SDS011;2783;48.730;8.006;2022-08-19T01:48:55;20.63;;;13.40;;
5521;SDS011;2783;48.730;8.006;2022-08-19T01:51:20;21.02;;;13.02;;
5521;SDS011;2783;48.730;8.006;2022-08-19T01:53:49;19.17;;;12.70;;
5521;SDS011;2783;48.730;8.006;2022-08-19T01:56:16;22.45;;;13.80;;
5521;SDS011;2783;48.730;8.006;2022-08-19T01:58:44;23.63;;;13.85;;
5521;SDS011;2783;48.730;8.006;2022-08-19T02:01:18;20.23;;;12.43;;
5521;SDS011;2783;48.730;8.006;2022-08-19T02:03:44;20.98;;;12.85;;
5521;SDS011;2783;48.730;8.006;2022-08-19T02:06:10;22.98;;;13.27;;
5521;SDS011;2783;48.730;8.006;2022-08-19T02:08:37;23.58;;;13.70;;
5521;SDS011;2783;48.730;8.006;2022-08-19T02:11:05;19.77;;;12.07;;
5521;SDS011;2783;48.730;8.006;2022-08-19T02:13:31;22.95;;;13.52;;
5521;SDS011;2783;48.730;8.006;2022-08-19T02:15:58;20.20;;;12.88;;
5521;SDS011;2783;48.730;8.006;2022-08-19T02:18:24;21.63;;;13.82;;
5521;SDS011;2783;48.730;8.006;2022-08-19T02:20:49;21.85;;;13.95;;
5521;SDS011;2783;48.730;8.006;2022-08-19T02:23:15;20.70;;;12.10;;
5521;SDS011;2783;48.730;8.006;2022-08-19T02:25:42;20.90;;;13.43;;
5521;SDS011;2783;48.730;8.006;2022-08-19T02:28:13;21.60;;;13.07;;
5521;SDS011;2783;48.730;8.006;2022-08-19T02:30:39;20.20;;;13.32;;
5521;SDS011;2783;48.730;8.006;2022-08-19T02:33:06;19.98;;;12.45;;
5521;SDS011;2783;48.730;8.006;2022-08-19T02:35:31;20.92;;;12.15;;
5521;SDS011;2783;48.730;8.006;2022-08-19T02:37:57;19.42;;;12.15;;
5521;SDS011;2783;48.730;8.006;2022-08-19T02:40:46;22.65;;;12.43;;
5521;SDS011;2783;48.730;8.006;2022-08-19T02:43:15;22.77;;;12.38;;
5521;SDS011;2783;48.730;8.006;2022-08-19T02:45:40;19.10;;;12.25;;
5521;SDS011;2783;48.730;8.006;2022-08-19T02:48:06;19.58;;;12.27;;
5521;SDS011;2783;48.730;8.006;2022-08-19T02:50:33;20.65;;;13.00;;
5521;SDS011;2783;48.730;8.006;2022-08-19T02:53:03;23.02;;;13.82;;
5521;SDS011;2783;48.730;8.006;2022-08-19T02:55:28;23.05;;;13.27;;
5521;SDS011;2783;48.730;8.006;2022-08-19T02:57:54;21.65;;;13.40;;
5521;SDS011;2783;48.730;8.006;2022-08-19T03:00:19;22.65;;;13.02;;
5521;SDS011;2783;48.730;8.006;2022-08-19T03:02:45;20.92;;;13.02;;
5521;SDS011;2783;48.730;8.006;2022-08-19T03:05:11;24.35;;;13.20;;
5521;SDS011;2783;48.730;8.006;2022-08-19T03:07:37;21.00;;;12.88;;
5521;SDS011;2783;48.730;8.006;2022-08-19T03:10:03;20.15;;;12.80;;
5521;SDS011;2783;48.730;8.006;2022-08-19T03:12:29;21.67;;;11.77;;
5521;SDS011;2783;48.730;8.006;2022-08-19T03:14:54;20.95;;;13.00;;
5521;SDS011;2783;48.730;8.006;2022-08-19T03:17:20;22.80;;;12.52;;
5521;SDS011;2783;48.730;8.006;2022-08-19T03:19:45;20.60;;;12.63;;
5521;SDS011;2783;48.730;8.006;2022-08-19T03:22:11;20.88;;;11.93;;
5521;SDS011;2783;48.730;8.006;2022-08-19T03:24:37;27.23;;;13.40;;
5521;SDS011;2783;48.730;8.006;2022-08-19T03:27:02;21.38;;;13.10;;
5521;SDS011;2783;48.730;8.006;2022-08-19T03:29:30;22.40;;;12.57;;
5521;SDS011;2783;48.730;8.006;2022-08-19T03:31:57;21.67;;;12.30;;
5521;SDS011;2783;48.730;8.006;2022-08-19T03:34:26;22.88;;;12.63;;
5521;SDS011;2783;48.730;8.006;2022-08-19T03:36:57;18.73;;;11.35;;
5521;SDS011;2783;48.730;8.006;2022-08-19T03:39:25;19.63;;;11.70;;
5521;SDS011;2783;48.730;8.006;2022-08-19T03:41:52;20.92;;;12.80;;
5521;SDS011;2783;48.730;8.006;2022-08-19T03:44:22;22.27;;;12.02;;
5521;SDS011;2783;48.730;8.006;2022-08-19T03:46:57;23.80;;;13.32;;
5521;SDS011;2783;48.730;8.006;2022-08-19T03:49:26;21.52;;;12.90;;
5521;SDS011;2783;48.730;8.006;2022-08-19T03:51:54;19.80;;;12.52;;
5521;SDS011;2783;48.730;8.006;2022-08-19T03:54:22;19.13;;;12.48;;
5521;SDS011;2783;48.730;8.006;2022-08-19T03:56:49;20.08;;;11.45;;
5521;SDS011;2783;48.730;8.006;2022-08-19T03:59:22;20.77;;;11.77;;
5521;SDS011;2783;48.730;8.006;2022-08-19T04:01:54;21.63;;;11.13;;
5521;SDS011;2783;48.730;8.006;2022-08-19T04:04:21;20.23;;;11.80;;
5521;SDS011;2783;48.730;8.006;2022-08-19T04:06:47;17.55;;;11.27;;
5521;SDS011;2783;48.730;8.006;2022-08-19T04:09:12;19.95;;;11.13;;
5521;SDS011;2783;48.730;8.006;2022-08-19T04:11:39;20.17;;;11.40;;
5521;SDS011;2783;48.730;8.006;2022-08-19T04:14:07;23.83;;;12.85;;
5521;SDS011;2783;48.730;8.006;2022-08-19T04:16:34;21.02;;;12.07;;
5521;SDS011;2783;48.730;8.006;2022-08-19T04:19:00;18.88;;;11.30;;
5521;SDS011;2783;48.730;8.006;2022-08-19T04:21:28;21.20;;;12.82;;
5521;SDS011;2783;48.730;8.006;2022-08-19T04:23:54;19.23;;;11.75;;
5521;SDS011;2783;48.730;8.006;2022-08-19T04:26:22;19.45;;;12.63;;
5521;SDS011;2783;48.730;8.006;2022-08-19T04:28:49;19.73;;;11.93;;
5521;SDS011;2783;48.730;8.006;2022-08-19T04:31:23;18.85;;;11.50;;
5521;SDS011;2783;48.730;8.006;2022-08-19T04:33:55;22.92;;;12.10;;
5521;SDS011;2783;48.730;8.006;2022-08-19T04:36:24;20.77;;;12.45;;
5521;SDS011;2783;48.730;8.006;2022-08-19T04:38:53;21.73;;;11.23;;
5521;SDS011;2783;48.730;8.006;2022-08-19T04:41:20;24.13;;;13.40;;
5521;SDS011;2783;48.730;8.006;2022-08-19T04:44:04;24.58;;;13.60;;
5521;SDS011;2783;48.730;8.006;2022-08-19T04:46:30;20.38;;;12.25;;
5521;SDS011;2783;48.730;8.006;2022-08-19T04:48:56;22.45;;;13.02;;
5521;SDS011;2783;48.730;8.006;2022-08-19T04:51:23;20.88;;;12.48;;
5521;SDS011;2783;48.730;8.006;2022-08-19T04:53:49;20.63;;;11.65;;
5521;SDS011;2783;48.730;8.006;2022-08-19T04:56:15;20.10;;;12.40;;
5521;SDS011;2783;48.730;8.006;2022-08-19T04:58:43;20.27;;;12.70;;
5521;SDS011;2783;48.730;8.006;2022-08-19T05:01:14;20.85;;;12.25;;
5521;SDS011;2783;48.730;8.006;2022-08-19T05:03:43;20.52;;;12.65;;
5521;SDS011;2783;48.730;8.006;2022-08-19T05:06:09;18.63;;;12.00;;
5521;SDS011;2783;48.730;8.006;2022-08-19T05:08:38;21.52;;;12.57;;
5521;SDS011;2783;48.730;8.006;2022-08-19T05:11:13;19.92;;;12.35;;
5521;SDS011;2783;48.730;8.006;2022-08-19T05:13:43;24.90;;;12.25;;
5521;SDS011;2783;48.730;8.006;2022-08-19T05:16:09;23.83;;;12.80;;
5521;SDS011;2783;48.730;8.006;2022-08-19T05:18:36;39.67;;;13.02;;
5521;SDS011;2783;48.730;8.006;2022-08-19T05:21:21;21.08;;;12.82;;
5521;SDS011;2783;48.730;8.006;2022-08-19T05:24:06;20.42;;;12.80;;
5521;SDS011;2783;48.730;8.006;2022-08-19T05:26:35;23.05;;;13.52;;
5521;SDS011;2783;48.730;8.006;2022-08-19T05:29:02;21.55;;;12.60;;
5521;SDS011;2783;48.730;8.006;2022-08-19T05:31:28;19.80;;;12.52;;
5521;SDS011;2783;48.730;8.006;2022-08-19T05:33:54;19.90;;;11.85;;
5521;SDS011;2783;48.730;8.006;2022-08-19T05:36:20;19.42;;;11.75;;
5521;SDS011;2783;48.730;8.006;2022-08-19T05:38:46;19.50;;;11.63;;
5521;SDS011;2783;48.730;8.006;2022-08-19T05:41:13;19.08;;;12.07;;
5521;SDS011;2783;48.730;8.006;2022-08-19T05:43:39;23.33;;;12.27;;
5521;SDS011;2783;48.730;8.006;2022-08-19T05:46:05;19.40;;;12.35;;
5521;SDS011;2783;48.730;8.006;2022-08-19T05:48:33;19.02;;;12.02;;
5521;SDS011;2783;48.730;8.006;2022-08-19T05:51:03;19.80;;;11.82;;
5521;SDS011;2783;48.730;8.006;2022-08-19T05:53:33;22.23;;;12.10;;
5521;SDS011;2783;48.730;8.006;2022-08-19T05:56:09;22.42;;;13.32;;
5521;SDS011;2783;48.730;8.006;2022-08-19T05:58:43;20.10;;;12.68;;
5521;SDS011;2783;48.730;8.006;2022-08-19T06:01:10;22.67;;;13.05;;
5521;SDS011;2783;48.730;8.006;2022-08-19T06:03:38;21.42;;;12.07;;
5521;SDS011;2783;48.730;8.006;2022-08-19T06:06:05;23.08;;;13.48;;
5521;SDS011;2783;48.730;8.006;2022-08-19T06:08:34;23.10;;;13.45;;
5521;SDS011;2783;48.730;8.006;2022-08-19T06:13:50;17.83;;;11.88;;
5521;SDS011;2783;48.730;8.006;2022-08-19T06:16:20;20.30;;;13.23;;
5521;SDS011;2783;48.730;8.006;2022-08-19T06:18:50;20.20;;;12.67;;
5521;SDS011;2783;48.730;8.006;2022-08-19T06:21:23;21.95;;;13.20;;
5521;SDS011;2783;48.730;8.006;2022-08-19T06:23:50;19.25;;;12.68;;
5521;SDS011;2783;48.730;8.006;2022-08-19T06:26:17;22.58;;;13.65;;
5521;SDS011;2783;48.730;8.006;2022-08-19T06:28:43;21.05;;;13.25;;
5521;SDS011;2783;48.730;8.006;2022-08-19T06:31:22;26.83;;;14.00;;
5521;SDS011;2783;48.730;8.006;2022-08-19T06:33:50;21.70;;;13.88;;
5521;SDS011;2783;48.730;8.006;2022-08-19T06:36:20;22.55;;;13.95;;
5521;SDS011;2783;48.730;8.006;2022-08-19T06:38:46;22.00;;;13.07;;
5521;SDS011;2783;48.730;8.006;2022-08-19T06:41:12;19.83;;;12.35;;
5521;SDS011;2783;48.730;8.006;2022-08-19T06:43:37;23.13;;;14.43;;
5521;SDS011;2783;48.730;8.006;2022-08-19T06:46:03;23.55;;;13.82;;
5521;SDS011;2783;48.730;8.006;2022-08-19T06:48:29;21.42;;;14.05;;
5521;SDS011;2783;48.730;8.006;2022-08-19T06:50:55;20.20;;;13.57;;
5521;SDS011;2783;48.730;8.006;2022-08-19T06:53:21;20.08;;;13.13;;
5521;SDS011;2783;48.730;8.006;2022-08-19T06:55:46;21.83;;;13.80;;
5521;SDS011;2783;48.730;8.006;2022-08-19T06:58:12;21.50;;;13.75;;
5521;SDS011;2783;48.730;8.006;2022-08-19T07:00:37;21.38;;;13.85;;
5521;SDS011;2783;48.730;8.006;2022-08-19T07:03:03;19.98;;;14.07;;
5521;SDS011;2783;48.730;8.006;2022-08-19T07:05:28;24.60;;;14.88;;
5521;SDS011;2783;48.730;8.006;2022-08-19T07:07:54;21.85;;;13.27;;
5521;SDS011;2783;48.730;8.006;2022-08-19T07:10:19;21.58;;;13.45;;
5521;SDS011;2783;48.730;8.006;2022-08-19T07:12:45;24.40;;;14.52;;
5521;SDS011;2783;48.730;8.006;2022-08-19T07:15:12;23.83;;;13.25;;
5521;SDS011;2783;48.730;8.006;2022-08-19T07:17:37;23.40;;;13.68;;
5521;SDS011;2783;48.730;8.006;2022-08-19T07:20:04;24.67;;;14.98;;
5521;SDS011;2783;48.730;8.006;2022-08-19T07:22:32;22.92;;;14.88;;
5521;SDS011;2783;48.730;8.006;2022-08-19T07:24:59;19.80;;;12.50;;
5521;SDS011;2783;48.730;8.006;2022-08-19T07:27:25;40.15;;;15.02;;
5521;SDS011;2783;48.730;8.006;2022-08-19T07:29:52;22.05;;;14.38;;
5521;SDS011;2783;48.730;8.006;2022-08-19T07:32:18;21.13;;;13.73;;
5521;SDS011;2783;48.730;8.006;2022-08-19T07:34:43;23.80;;;13.50;;
5521;SDS011;2783;48.730;8.006;2022-08-19T07:37:10;21.48;;;12.68;;
5521;SDS011;2783;48.730;8.006;2022-08-19T07:39:36;18.75;;;12.65;;
5521;SDS011;2783;48.730;8.006;2022-08-19T07:42:05;20.92;;;13.05;;
5521;SDS011;2783;48.730;8.006;2022-08-19T07:44:33;21.92;;;13.00;;
5521;SDS011;2783;48.730;8.006;2022-08-19T07:46:59;26.08;;;13.18;;
5521;SDS011;2783;48.730;8.006;2022-08-19T07:49:25;18.15;;;11.90;;
5521;SDS011;2783;48.730;8.006;2022-08-19T07:51:52;20.65;;;13.60;;
5521;SDS011;2783;48.730;8.006;2022-08-19T07:54:25;19.50;;;12.47;;
5521;SDS011;2783;48.730;8.006;2022-08-19T07:56:52;19.10;;;12.20;;
5521;SDS011;2783;48.730;8.006;2022-08-19T07:59:18;20.50;;;12.05;;
5521;SDS011;2783;48.730;8.006;2022-08-19T08:01:45;18.50;;;12.43;;
5521;SDS011;2783;48.730;8.006;2022-08-19T08:04:11;17.13;;;12.00;;
5521;SDS011;2783;48.730;8.006;2022-08-19T08:06:56;17.05;;;11.77;;
5521;SDS011;2783;48.730;8.006;2022-08-19T08:09:41;18.40;;;11.07;;
5521;SDS011;2783;48.730;8.006;2022-08-19T08:12:12;17.25;;;11.27;;
5521;SDS011;2783;48.730;8.006;2022-08-19T08:14:42;19.38;;;11.20;;
5521;SDS011;2783;48.730;8.006;2022-08-19T08:17:14;15.93;;;10.50;;
5521;SDS011;2783;48.730;8.006;2022-08-19T08:19:41;18.52;;;11.65;;
5521;SDS011;2783;48.730;8.006;2022-08-19T08:22:08;15.15;;;11.05;;
5521;SDS011;2783;48.730;8.006;2022-08-19T08:24:54;14.95;;;10.45;;
5521;SDS011;2783;48.730;8.006;2022-08-19T08:27:23;18.63;;;11.63;;
5521;SDS011;2783;48.730;8.006;2022-08-19T08:29:49;14.77;;;10.23;;
5521;SDS011;2783;48.730;8.006;2022-08-19T08:32:14;15.70;;;9.98;;
5521;SDS011;2783;48.730;8.006;2022-08-19T08:34:40;15.02;;;10.23;;
5521;SDS011;2783;48.730;8.006;2022-08-19T08:37:05;17.15;;;10.60;;
5521;SDS011;2783;48.730;8.006;2022-08-19T08:39:31;16.23;;;11.25;;
5521;SDS011;2783;48.730;8.006;2022-08-19T08:41:58;16.42;;;11.57;;
5521;SDS011;2783;48.730;8.006;2022-08-19T08:47:25;16.52;;;11.18;;
5521;SDS011;2783;48.730;8.006;2022-08-19T08:50:09;13.88;;;10.13;;
5521;SDS011;2783;48.730;8.006;2022-08-19T08:52:42;18.85;;;11.00;;
5521;SDS011;2783;48.730;8.006;2022-08-19T08:55:15;15.98;;;10.35;;
5521;SDS011;2783;48.730;8.006;2022-08-19T09:00:17;14.05;;;9.40;;
5521;SDS011;2783;48.730;8.006;2022-08-19T09:02:46;14.13;;;8.68;;
5521;SDS011;2783;48.730;8.006;2022-08-19T09:05:13;13.20;;;9.38;;
5521;SDS011;2783;48.730;8.006;2022-08-19T09:10:46;14.40;;;9.43;;
5521;SDS011;2783;48.730;8.006;2022-08-19T09:15:50;13.75;;;8.93;;
5521;SDS011;2783;48.730;8.006;2022-08-19T09:18:22;13.38;;;8.75;;
5521;SDS011;2783;48.730;8.006;2022-08-19T09:20:47;12.60;;;8.95;;
5521;SDS011;2783;48.730;8.006;2022-08-19T09:23:13;12.70;;;8.43;;
5521;SDS011;2783;48.730;8.006;2022-08-19T09:25:39;12.95;;;9.27;;
5521;SDS011;2783;48.730;8.006;2022-08-19T09:28:05;11.70;;;8.38;;
5521;SDS011;2783;48.730;8.006;2022-08-19T09:30:32;12.65;;;8.82;;
5521;SDS011;2783;48.730;8.006;2022-08-19T09:33:04;11.43;;;7.50;;
5521;SDS011;2783;48.730;8.006;2022-08-19T09:35:30;10.98;;;7.53;;
5521;SDS011;2783;48.730;8.006;2022-08-19T09:37:56;11.20;;;7.80;;
5521;SDS011;2783;48.730;8.006;2022-08-19T09:40:22;11.02;;;7.03;;
5521;SDS011;2783;48.730;8.006;2022-08-19T09:42:48;12.75;;;7.22;;
5521;SDS011;2783;48.730;8.006;2022-08-19T09:45:14;12.30;;;6.50;;
5521;SDS011;2783;48.730;8.006;2022-08-19T09:47:42;9.38;;;6.30;;
5521;SDS011;2783;48.730;8.006;2022-08-19T09:50:08;8.65;;;6.22;;
5521;SDS011;2783;48.730;8.006;2022-08-19T09:52:36;9.57;;;6.60;;
5521;SDS011;2783;48.730;8.006;2022-08-19T09:55:05;7.97;;;6.03;;
5521;SDS011;2783;48.730;8.006;2022-08-19T09:57:33;9.25;;;6.38;;
5521;SDS011;2783;48.730;8.006;2022-08-19T09:59:58;7.72;;;5.07;;
5521;SDS011;2783;48.730;8.006;2022-08-19T10:02:24;7.63;;;5.57;;
5521;SDS011;2783;48.730;8.006;2022-08-19T10:04:50;9.38;;;5.80;;
5521;SDS011;2783;48.730;8.006;2022-08-19T10:07:34;9.70;;;5.15;;
5521;SDS011;2783;48.730;8.006;2022-08-19T10:10:00;11.40;;;6.05;;
5521;SDS011;2783;48.730;8.006;2022-08-19T10:12:25;8.25;;;5.57;;
5521;SDS011;2783;48.730;8.006;2022-08-19T10:14:51;8.88;;;5.38;;
5521;SDS011;2783;48.730;8.006;2022-08-19T10:17:18;8.05;;;5.75;;
5521;SDS011;2783;48.730;8.006;2022-08-19T10:19:43;11.93;;;6.05;;
5521;SDS011;2783;48.730;8.006;2022-08-19T10:22:09;9.32;;;6.28;;
5521;SDS011;2783;48.730;8.006;2022-08-19T10:24:39;7.30;;;5.68;;
5521;SDS011;2783;48.730;8.006;2022-08-19T10:27:06;9.43;;;5.85;;
5521;SDS011;2783;48.730;8.006;2022-08-19T10:29:32;7.20;;;5.30;;
5521;SDS011;2783;48.730;8.006;2022-08-19T10:32:03;7.45;;;5.60;;
5521;SDS011;2783;48.730;8.006;2022-08-19T10:34:33;8.98;;;6.30;;
5521;SDS011;2783;48.730;8.006;2022-08-19T10:37:01;8.35;;;6.15;;
5521;SDS011;2783;48.730;8.006;2022-08-19T10:39:32;8.68;;;5.80;;
5521;SDS011;2783;48.730;8.006;2022-08-19T10:41:59;9.13;;;6.40;;
5521;SDS011;2783;48.730;8.006;2022-08-19T10:44:24;11.20;;;6.40;;
5521;SDS011;2783;48.730;8.006;2022-08-19T10:46:50;9.05;;;6.10;;
5521;SDS011;2783;48.730;8.006;2022-08-19T10:49:17;10.20;;;6.53;;
5521;SDS011;2783;48.730;8.006;2022-08-19T10:51:43;7.55;;;5.60;;
5521;SDS011;2783;48.730;8.006;2022-08-19T10:54:28;9.35;;;5.85;;
5521;SDS011;2783;48.730;8.006;2022-08-19T10:57:17;7.35;;;5.72;;
5521;SDS011;2783;48.730;8.006;2022-08-19T10:59:42;7.53;;;5.63;;
5521;SDS011;2783;48.730;8.006;2022-08-19T11:02:09;10.02;;;6.57;;
5521;SDS011;2783;48.730;8.006;2022-08-19T11:04:37;10.50;;;7.03;;
5521;SDS011;2783;48.730;8.006;2022-08-19T11:07:04;12.05;;;7.40;;
5521;SDS011;2783;48.730;8.006;2022-08-19T11:09:30;10.07;;;6.63;;
5521;SDS011;2783;48.730;8.006;2022-08-19T11:12:01;9.07;;;6.55;;
5521;SDS011;2783;48.730;8.006;2022-08-19T11:14:27;11.55;;;7.55;;
5521;SDS011;2783;48.730;8.006;2022-08-19T11:16:53;9.48;;;7.18;;
5521;SDS011;2783;48.730;8.006;2022-08-19T11:19:21;9.63;;;6.65;;
5521;SDS011;2783;48.730;8.006;2022-08-19T11:21:49;12.70;;;7.68;;
5521;SDS011;2783;48.730;8.006;2022-08-19T11:24:17;9.20;;;7.00;;
5521;SDS011;2783;48.730;8.006;2022-08-19T11:26:45;11.55;;;7.90;;
5521;SDS011;2783;48.730;8.006;2022-08-19T11:29:14;9.88;;;7.72;;
5521;SDS011;2783;48.730;8.006;2022-08-19T11:31:42;11.63;;;7.63;;
5521;SDS011;2783;48.730;8.006;2022-08-19T11:34:11;12.27;;;7.72;;
5521;SDS011;2783;48.730;8.006;2022-08-19T11:36:39;10.82;;;7.40;;
5521;SDS011;2783;48.730;8.006;2022-08-19T11:39:08;11.68;;;7.78;;
5521;SDS011;2783;48.730;8.006;2022-08-19T11:41:35;11.77;;;8.20;;
5521;SDS011;2783;48.730;8.006;2022-08-19T11:44:01;11.50;;;8.43;;
5521;SDS011;2783;48.730;8.006;2022-08-19T11:46:28;9.50;;;7.07;;
5521;SDS011;2783;48.730;8.006;2022-08-19T11:48:54;10.05;;;7.20;;
5521;SDS011;2783;48.730;8.006;2022-08-19T11:51:25;11.00;;;7.63;;
5521;SDS011;2783;48.730;8.006;2022-08-19T11:53:53;8.20;;;6.20;;
5521;SDS011;2783;48.730;8.006;2022-08-19T11:56:20;8.55;;;5.88;;
5521;SDS011;2783;48.730;8.006;2022-08-19T11:58:46;13.52;;;6.68;;
5521;SDS011;2783;48.730;8.006;2022-08-19T12:01:14;10.63;;;6.03;;
5521;SDS011;2783;48.730;8.006;2022-08-19T12:03:41;7.68;;;5.75;;
5521;SDS011;2783;48.730;8.006;2022-08-19T12:06:10;7.80;;;5.50;;
5521;SDS011;2783;48.730;8.006;2022-08-19T12:08:38;8.20;;;5.13;;
5521;SDS011;2783;48.730;8.006;2022-08-19T12:11:05;7.65;;;5.70;;
5521;SDS011;2783;48.730;8.006;2022-08-19T12:13:33;8.27;;;5.57;;
5521;SDS011;2783;48.730;8.006;2022-08-19T12:15:59;8.18;;;5.00;;
5521;SDS011;2783;48.730;8.006;2022-08-19T12:18:26;6.07;;;4.72;;
5521;SDS011;2783;48.730;8.006;2022-08-19T12:20:52;7.32;;;5.25;;
5521;SDS011;2783;48.730;8.006;2022-08-19T12:23:19;7.63;;;4.85;;
5521;SDS011;2783;48.730;8.006;2022-08-19T12:25:46;6.75;;;4.45;;
5521;SDS011;2783;48.730;8.006;2022-08-19T12:28:20;5.25;;;4.05;;
5521;SDS011;2783;48.730;8.006;2022-08-19T12:30:47;5.60;;;3.90;;
5521;SDS011;2783;48.730;8.006;2022-08-19T12:33:13;6.82;;;3.97;;
5521;SDS011;2783;48.730;8.006;2022-08-19T12:35:43;5.65;;;4.00;;
5521;SDS011;2783;48.730;8.006;2022-08-19T12:38:11;5.18;;;3.95;;
5521;SDS011;2783;48.730;8.006;2022-08-19T12:40:39;5.05;;;3.70;;
5521;SDS011;2783;48.730;8.006;2022-08-19T12:43:06;6.78;;;3.90;;
5521;SDS011;2783;48.730;8.006;2022-08-19T12:45:32;5.95;;;4.00;;
5521;SDS011;2783;48.730;8.006;2022-08-19T12:47:58;6.88;;;4.40;;
5521;SDS011;2783;48.730;8.006;2022-08-19T12:50:24;5.22;;;3.58;;
5521;SDS011;2783;48.730;8.006;2022-08-19T12:52:50;5.00;;;3.40;;
5521;SDS011;2783;48.730;8.006;2022-08-19T12:55:15;6.53;;;4.20;;
5521;SDS011;2783;48.730;8.006;2022-08-19T12:57:43;5.97;;;3.47;;
5521;SDS011;2783;48.730;8.006;2022-08-19T13:00:10;4.75;;;3.75;;
5521;SDS011;2783;48.730;8.006;2022-08-19T13:02:42;6.27;;;3.80;;
5521;SDS011;2783;48.730;8.006;2022-08-19T13:05:10;6.75;;;4.40;;
5521;SDS011;2783;48.730;8.006;2022-08-19T13:07:38;5.70;;;3.60;;
5521;SDS011;2783;48.730;8.006;2022-08-19T13:10:06;5.38;;;3.63;;
5521;SDS011;2783;48.730;8.006;2022-08-19T13:12:33;6.47;;;3.70;;
5521;SDS011;2783;48.730;8.006;2022-08-19T13:14:59;5.38;;;3.83;;
5521;SDS011;2783;48.730;8.006;2022-08-19T13:17:24;5.95;;;4.35;;
5521;SDS011;2783;48.730;8.006;2022-08-19T13:19:50;7.28;;;4.15;;
5521;SDS011;2783;48.730;8.006;2022-08-19T13:22:16;7.20;;;4.18;;
5521;SDS011;2783;48.730;8.006;2022-08-19T13:24:42;5.88;;;3.83;;
5521;SDS011;2783;48.730;8.006;2022-08-19T13:27:07;5.43;;;3.70;;
5521;SDS011;2783;48.730;8.006;2022-08-19T13:29:33;5.18;;;3.60;;
5521;SDS011;2783;48.730;8.006;2022-08-19T13:32:16;4.95;;;3.40;;
5521;SDS011;2783;48.730;8.006;2022-08-19T13:35:01;5.45;;;3.17;;
5521;SDS011;2783;48.730;8.006;2022-08-19T13:37:27;4.63;;;3.58;;
5521;SDS011;2783;48.730;8.006;2022-08-19T13:40:09;5.78;;;3.58;;
5521;SDS011;2783;48.730;8.006;2022-08-19T13:42:42;6.18;;;3.85;;
5521;SDS011;2783;48.730;8.006;2022-08-19T13:45:11;4.90;;;3.53;;
5521;SDS011;2783;48.730;8.006;2022-08-19T13:47:37;5.47;;;3.90;;
5521;SDS011;2783;48.730;8.006;2022-08-19T13:50:11;7.43;;;3.85;;
5521;SDS011;2783;48.730;8.006;2022-08-19T13:55:06;5.38;;;3.53;;
5521;SDS011;2783;48.730;8.006;2022-08-19T13:57:33;5.55;;;4.00;;
5521;SDS011;2783;48.730;8.006;2022-08-19T13:59:59;5.85;;;3.85;;
5521;SDS011;2783;48.730;8.006;2022-08-19T14:02:26;5.28;;;3.85;;
5521;SDS011;2783;48.730;8.006;2022-08-19T14:04:52;5.88;;;3.38;;
5521;SDS011;2783;48.730;8.006;2022-08-19T14:07:17;5.43;;;3.60;;
5521;SDS011;2783;48.730;8.006;2022-08-19T14:09:43;5.30;;;3.72;;
5521;SDS011;2783;48.730;8.006;2022-08-19T14:12:08;5.68;;;3.72;;
5521;SDS011;2783;48.730;8.006;2022-08-19T14:14:37;5.63;;;3.55;;
5521;SDS011;2783;48.730;8.006;2022-08-19T14:17:07;6.32;;;3.50;;
5521;SDS011;2783;48.730;8.006;2022-08-19T14:19:34;5.20;;;3.50;;
5521;SDS011;2783;48.730;8.006;2022-08-19T14:22:00;6.70;;;4.07;;
5521;SDS011;2783;48.730;8.006;2022-08-19T14:24:25;7.00;;;3.60;;
5521;SDS011;2783;48.730;8.006;2022-08-19T14:26:51;7.10;;;3.58;;
5521;SDS011;2783;48.730;8.006;2022-08-19T14:29:16;5.32;;;3.47;;
5521;SDS011;2783;48.730;8.006;2022-08-19T14:31:42;5.97;;;3.45;;
5521;SDS011;2783;48.730;8.006;2022-08-19T14:34:08;5.13;;;3.50;;
5521;SDS011;2783;48.730;8.006;2022-08-19T14:36:35;4.53;;;3.25;;
5521;SDS011;2783;48.730;8.006;2022-08-19T14:39:02;6.60;;;3.38;;
5521;SDS011;2783;48.730;8.006;2022-08-19T14:41:28;7.22;;;3.60;;
5521;SDS011;2783;48.730;8.006;2022-08-19T14:43:55;4.53;;;3.13;;
5521;SDS011;2783;48.730;8.006;2022-08-19T14:46:23;9.93;;;4.22;;
5521;SDS011;2783;48.730;8.006;2022-08-19T14:48:50;5.18;;;3.08;;
5521;SDS011;2783;48.730;8.006;2022-08-19T14:51:16;5.07;;;3.70;;
5521;SDS011;2783;48.730;8.006;2022-08-19T14:53:42;9.63;;;3.53;;
5521;SDS011;2783;48.730;8.006;2022-08-19T14:56:09;5.00;;;3.20;;
5521;SDS011;2783;48.730;8.006;2022-08-19T14:58:39;4.07;;;2.88;;
5521;SDS011;2783;48.730;8.006;2022-08-19T15:01:09;5.05;;;3.25;;
5521;SDS011;2783;48.730;8.006;2022-08-19T15:03:35;4.78;;;3.17;;
5521;SDS011;2783;48.730;8.006;2022-08-19T15:06:02;7.55;;;3.75;;
5521;SDS011;2783;48.730;8.006;2022-08-19T15:08:29;6.82;;;3.75;;
5521;SDS011;2783;48.730;8.006;2022-08-19T15:10:56;6.28;;;3.90;;
5521;SDS011;2783;48.730;8.006;2022-08-19T15:13:23;7.32;;;3.90;;
5521;SDS011;2783;48.730;8.006;2022-08-19T15:15:49;7.25;;;3.90;;
5521;SDS011;2783;48.730;8.006;2022-08-19T15:18:16;9.68;;;4.53;;